createdAt,value
2019-05-19T01:40:15.662Z,35.43
2019-05-19T01:46:57.094Z,34.33
2019-05-19T01:49:49.458Z,38.07
2019-05-19T01:53:17.301Z,34.53
2019-05-19T01:56:39.488Z,30.37
2019-05-19T01:59:55.238Z,31.13
2019-05-19T02:02:45.306Z,34.80
2019-05-19T02:05:38.642Z,32.20
2019-05-19T02:08:40.214Z,41.37
2019-05-19T02:11:29.302Z,33.00
2019-05-19T02:14:41.606Z,31.37
2019-05-19T02:17:44.008Z,31.90
2019-05-19T02:20:51.504Z,34.83
2019-05-19T02:24:10.702Z,34.77
2019-05-19T02:31:24.369Z,33.87
2019-05-19T02:38:24.701Z,41.80
2019-05-19T02:42:05.371Z,31.63
2019-05-19T02:44:44.610Z,30.17
2019-05-19T02:50:52.137Z,27.07
2019-05-19T02:57:14.634Z,30.73
2019-05-19T03:00:17.807Z,28.30
2019-05-19T03:03:06.642Z,26.47
2019-05-19T03:06:00.778Z,26.80
2019-05-19T03:10:32.300Z,28.23
2019-05-19T03:12:37.050Z,37.10
2019-05-19T03:29:46.609Z,22.53
2019-05-19T03:32:45.160Z,20.90
2019-05-19T03:35:12.563Z,25.03
2019-05-19T03:37:43.046Z,26.03
2019-05-19T03:40:23.540Z,24.03
2019-05-19T03:42:53.756Z,29.80
2019-05-19T03:45:25.853Z,29.40
2019-05-19T03:48:02.570Z,24.63
2019-05-19T03:50:34.701Z,24.43
2019-05-19T03:53:04.853Z,29.03
2019-05-19T03:55:34.583Z,27.97
2019-05-19T03:58:04.890Z,25.53
2019-05-19T04:00:34.450Z,29.00
2019-05-19T04:03:03.970Z,23.60
2019-05-19T04:05:33.827Z,32.77
2019-05-19T04:08:04.393Z,27.07
2019-05-19T04:10:37.614Z,25.93
2019-05-19T04:13:08.122Z,28.57
2019-05-19T04:15:38.356Z,29.57
2019-05-19T04:18:08.081Z,35.73
2019-05-19T04:20:38.421Z,28.97
2019-05-19T04:23:08.478Z,30.30
2019-05-19T04:25:38.475Z,27.70
2019-05-19T04:28:07.894Z,26.13
2019-05-19T04:30:37.657Z,24.60
2019-05-19T04:33:07.181Z,28.67
2019-05-19T04:35:36.885Z,24.90
2019-05-19T04:38:06.755Z,24.60
2019-05-19T04:40:36.612Z,23.53
2019-05-19T04:43:05.920Z,22.37
2019-05-19T04:45:35.796Z,21.80
2019-05-19T04:48:09.208Z,24.43
2019-05-19T04:50:36.507Z,25.87
2019-05-19T04:53:06.117Z,26.40
2019-05-19T04:55:36.007Z,22.80
2019-05-19T04:58:06.136Z,20.93
2019-05-19T05:00:37.102Z,20.03
2019-05-19T05:03:06.816Z,22.40
2019-05-19T05:05:42.674Z,22.53
2019-05-19T05:08:28.524Z,27.57
2019-05-19T05:10:46.423Z,22.20
2019-05-19T05:13:19.813Z,27.40
2019-05-19T05:15:49.807Z,22.80
2019-05-19T05:18:19.423Z,19.57
2019-05-19T05:20:49.524Z,20.93
2019-05-19T05:23:19.830Z,21.90
2019-05-19T05:25:50.076Z,19.03
2019-05-19T05:28:20.227Z,17.40
2019-05-19T05:30:49.806Z,19.50
2019-05-19T05:33:22.100Z,22.10
2019-05-19T05:35:52.365Z,21.20
2019-05-19T05:38:29.040Z,21.33
2019-05-19T05:41:07.009Z,20.27
2019-05-19T05:43:51.958Z,21.63
2019-05-19T05:46:31.989Z,22.27
2019-05-19T05:49:02.945Z,19.03
2019-05-19T05:51:37.956Z,19.43
2019-05-19T05:54:09.706Z,23.30
2019-05-19T06:00:10.394Z,19.63
2019-05-19T06:02:40.514Z,21.07
2019-05-19T06:05:11.031Z,19.53
2019-05-19T06:07:40.653Z,19.87
2019-05-19T06:10:11.816Z,18.83
2019-05-19T06:12:42.284Z,20.80
2019-05-19T06:15:11.828Z,21.50
2019-05-19T06:17:41.759Z,20.80
2019-05-19T06:20:12.892Z,21.13
2019-05-19T06:22:55.857Z,19.97
2019-05-19T06:25:14.460Z,20.00
2019-05-19T06:28:15.654Z,23.53
2019-05-19T06:30:47.019Z,21.40
2019-05-19T06:35:27.311Z,20.60
2019-05-19T06:36:27.932Z,19.70
2019-05-19T06:39:00.257Z,21.50
2019-05-19T06:41:56.331Z,17.80
2019-05-19T06:44:27.048Z,19.30
2019-05-19T06:46:58.060Z,19.73
2019-05-19T06:49:39.912Z,19.03
2019-05-19T06:52:10.218Z,18.23
2019-05-19T06:54:42.668Z,18.53
2019-05-19T06:57:12.369Z,18.10
2019-05-19T07:02:26.958Z,20.50
2019-05-19T07:04:57.124Z,18.37
2019-05-19T07:07:29.913Z,16.97
2019-05-19T07:10:03.342Z,17.73
2019-05-19T07:12:35.867Z,18.97
2019-05-19T07:15:10.702Z,18.47
2019-05-19T07:17:43.145Z,17.53
2019-05-19T07:20:12.660Z,17.03
2019-05-19T07:22:42.696Z,19.23
2019-05-19T07:25:13.830Z,19.97
2019-05-19T07:27:46.497Z,19.00
2019-05-19T07:30:17.477Z,18.90
2019-05-19T07:32:49.386Z,19.30
2019-05-19T07:35:18.819Z,19.80
2019-05-19T07:37:48.274Z,17.97
2019-05-19T07:40:18.921Z,19.20
2019-05-19T07:42:48.861Z,19.77
2019-05-19T07:45:18.202Z,18.23
2019-05-19T07:47:47.630Z,19.87
2019-05-19T07:50:19.889Z,18.43
2019-05-19T07:52:49.092Z,19.77
2019-05-19T07:55:18.619Z,17.97
2019-05-19T07:57:48.117Z,20.27
2019-05-19T08:00:17.695Z,20.47
2019-05-19T08:02:47.258Z,18.80
2019-05-19T08:05:16.696Z,19.50
2019-05-19T08:07:45.960Z,18.90
2019-05-19T08:10:16.881Z,17.97
2019-05-19T08:12:46.955Z,20.00
2019-05-19T08:15:31.305Z,18.57
2019-05-19T08:18:00.972Z,18.60
2019-05-19T08:20:31.438Z,18.90
2019-05-19T08:26:29.747Z,19.13
2019-05-19T08:29:01.033Z,18.93
2019-05-19T08:31:30.482Z,18.77
2019-05-19T08:34:00.214Z,19.77
2019-05-19T08:36:29.745Z,19.60
2019-05-19T08:39:00.031Z,21.43
2019-05-19T08:41:31.128Z,17.73
2019-05-19T08:44:00.610Z,18.63
2019-05-19T08:46:32.642Z,20.03
2019-05-19T08:49:09.447Z,19.50
2019-05-19T08:51:40.163Z,19.23
2019-05-19T08:54:18.326Z,21.43
2019-05-19T18:30:06.794Z,20.30
2019-05-19T18:32:36.361Z,18.93
2019-05-19T18:35:08.612Z,18.53
2019-05-19T18:37:39.394Z,20.30
2019-05-19T18:40:10.690Z,18.03
2019-05-19T18:42:41.132Z,17.93
2019-05-19T18:45:11.007Z,20.57
2019-05-19T18:47:40.383Z,15.97
2019-05-19T18:50:09.689Z,17.03
2019-05-19T18:52:38.939Z,15.83
2019-05-19T18:55:11.039Z,15.43
2019-05-19T18:57:40.712Z,16.17
2019-05-19T19:00:11.675Z,15.70
2019-05-19T19:02:47.959Z,17.93
2019-05-19T19:05:23.157Z,16.83
2019-05-19T19:07:55.896Z,19.03
2019-05-19T19:10:24.937Z,16.83
2019-05-19T19:13:42.665Z,16.93
2019-05-19T19:16:12.403Z,17.27
2019-05-19T19:18:44.428Z,17.13
2019-05-19T19:21:15.738Z,14.50
2019-05-19T19:23:45.707Z,18.07
2019-05-19T19:27:32.615Z,16.07
2019-05-19T19:29:16.879Z,14.93
2019-05-19T19:32:18.104Z,16.10
2019-05-19T19:34:50.699Z,13.50
2019-05-19T19:37:23.576Z,15.53
2019-05-19T19:40:04.873Z,14.43
2019-05-19T19:42:41.799Z,13.60
2019-05-19T19:45:15.068Z,15.20
2019-05-19T19:47:45.854Z,15.57
2019-05-19T19:56:08.568Z,15.87
2019-05-19T20:01:01.176Z,16.07
2019-05-19T20:03:40.144Z,15.73
2019-05-19T20:06:04.750Z,15.67
2019-05-19T20:08:35.674Z,13.63
2019-05-19T20:11:05.526Z,16.73
2019-05-19T20:13:37.455Z,16.90
2019-05-19T20:16:11.329Z,15.23
2019-05-19T20:18:42.709Z,16.90
2019-05-19T20:21:12.362Z,16.83
2019-05-19T20:23:41.835Z,15.17
2019-05-19T20:26:13.514Z,14.90
2019-05-19T20:28:45.074Z,15.83
2019-05-19T20:31:13.950Z,18.07
2019-05-19T20:33:43.763Z,19.20
2019-05-19T20:36:16.558Z,18.20
2019-05-19T20:38:48.813Z,16.07
2019-05-19T20:41:17.505Z,14.83
2019-05-19T20:43:50.117Z,17.23
2019-05-19T20:46:19.295Z,16.87
2019-05-19T20:48:49.300Z,15.07
2019-05-19T20:51:18.949Z,20.10
2019-05-19T20:53:53.403Z,17.63
2019-05-19T20:56:24.934Z,15.97
2019-05-19T20:58:54.814Z,18.90
2019-05-19T21:01:24.528Z,16.40
2019-05-19T21:03:56.732Z,19.47
2019-05-19T21:06:26.325Z,16.43
2019-05-19T21:09:01.316Z,16.43
2019-05-19T21:11:30.599Z,18.17
2019-05-19T21:13:59.963Z,18.00
2019-05-19T21:16:29.181Z,17.57
2019-05-19T21:19:02.712Z,16.50
2019-05-19T21:21:32.386Z,16.90
2019-05-19T21:24:01.894Z,17.67
2019-05-19T21:26:31.810Z,16.60
2019-05-19T21:29:05.412Z,20.33
2019-05-19T21:31:37.966Z,18.83
2019-05-19T21:34:10.291Z,18.17
2019-05-19T21:36:40.135Z,17.67
2019-05-19T21:39:09.783Z,21.27
2019-05-19T21:41:39.480Z,17.17
2019-05-19T21:44:09.264Z,19.03
2019-05-19T21:46:39.059Z,17.90
2019-05-19T21:49:08.308Z,18.77
2019-05-19T21:51:38.619Z,18.27
2019-05-19T21:54:08.459Z,20.07
2019-05-19T21:56:39.613Z,18.77
2019-05-19T21:59:09.114Z,19.13
2019-05-19T22:01:38.969Z,18.80
2019-05-19T22:04:08.228Z,22.03
2019-05-19T22:06:39.155Z,21.87
2019-05-19T22:09:08.912Z,19.63
2019-05-19T22:11:38.518Z,23.07
2019-05-19T22:14:07.976Z,22.67
2019-05-19T22:16:37.278Z,22.83
2019-05-19T22:19:06.978Z,23.87
2019-05-19T22:21:40.184Z,22.87
2019-05-19T22:24:09.864Z,24.63
2019-05-19T22:26:39.054Z,21.77
2019-05-19T22:29:08.839Z,26.60
2019-05-19T22:31:38.474Z,26.40
2019-05-19T22:34:07.934Z,26.90
2019-05-19T22:36:37.184Z,24.60
2019-05-19T22:39:07.292Z,33.10
2019-05-19T22:41:36.853Z,29.63
2019-05-19T22:44:06.551Z,28.03
2019-05-19T22:46:36.138Z,32.30
2019-05-19T22:49:05.601Z,29.33
2019-05-19T22:51:35.135Z,31.13
2019-05-19T22:54:07.388Z,32.47
2019-05-19T22:56:37.038Z,34.70
2019-05-19T22:59:18.769Z,32.50
2019-05-19T23:01:51.060Z,34.40
2019-05-19T23:04:08.483Z,35.33
2019-05-19T23:06:38.402Z,32.03
2019-05-19T23:09:08.259Z,39.83
2019-05-19T23:11:37.776Z,36.70
2019-05-19T23:14:06.956Z,41.47
2019-05-19T23:16:36.404Z,40.70
2019-05-19T23:19:05.609Z,45.03
2019-05-19T23:21:34.931Z,42.70
2019-05-19T23:24:04.442Z,43.47
2019-05-19T23:26:34.010Z,43.47
2019-05-19T23:29:05.330Z,42.37
2019-05-19T23:31:34.820Z,42.83
2019-05-19T23:34:04.340Z,45.40
2019-05-19T23:36:33.673Z,44.53
2019-05-19T23:39:03.373Z,44.63
2019-05-19T23:41:32.831Z,44.33
2019-05-19T23:44:02.670Z,45.87
2019-05-19T23:46:31.919Z,44.23
2019-05-19T23:49:01.259Z,41.33
2019-05-19T23:51:30.283Z,42.10
2019-05-19T23:53:59.541Z,43.63
2019-05-19T23:56:29.528Z,41.73
2019-05-19T23:58:59.059Z,40.53
